sensor_id;sensor_type;location;lat;lon;timestamp;pressure;altitude;pressure_sealevel;temperature;humidity
72465;BME280;60471;52.150;4.508;2023-04-02T00:00:33;101033.72;;;8.47;77.56
72465;BME280;60471;52.150;4.508;2023-04-02T00:03:03;101031.59;;;8.56;77.71
72465;BME280;60471;52.150;4.508;2023-04-02T00:05:40;101039.78;;;8.49;77.59
72465;BME280;60471;52.150;4.508;2023-04-02T00:08:22;101043.53;;;8.41;77.06
72465;BME280;60471;52.150;4.508;2023-04-02T00:11:01;101038.69;;;8.29;77.44
72465;BME280;60471;52.150;4.508;2023-04-02T00:13:34;101051.59;;;8.37;76.66
72465;BME280;60471;52.150;4.508;2023-04-02T00:16:07;101052.19;;;8.19;76.95
72465;BME280;60471;52.150;4.508;2023-04-02T00:18:39;101057.16;;;8.28;76.77
72465;BME280;60471;52.150;4.508;2023-04-02T00:21:21;101063.09;;;8.08;76.64
72465;BME280;60471;52.150;4.508;2023-04-02T00:23:52;101063.91;;;8.36;76.60
72465;BME280;60471;52.150;4.508;2023-04-02T00:26:28;101070.06;;;8.09;77.17
72465;BME280;60471;52.150;4.508;2023-04-02T00:28:56;101072.88;;;8.03;77.15
72465;BME280;60471;52.150;4.508;2023-04-02T00:31:23;101076.78;;;7.91;77.11
72465;BME280;60471;52.150;4.508;2023-04-02T00:33:51;101080.63;;;8.07;76.95
72465;BME280;60471;52.150;4.508;2023-04-02T00:36:19;101079.59;;;8.11;76.84
72465;BME280;60471;52.150;4.508;2023-04-02T00:38:48;101090.59;;;8.23;76.63
72465;BME280;60471;52.150;4.508;2023-04-02T00:41:21;101089.59;;;8.27;76.77
72465;BME280;60471;52.150;4.508;2023-04-02T00:43:52;101094.03;;;8.25;76.25
72465;BME280;60471;52.150;4.508;2023-04-02T00:46:23;101091.19;;;8.06;76.75
72465;BME280;60471;52.150;4.508;2023-04-02T00:49:09;101109.13;;;8.20;76.07
72465;BME280;60471;52.150;4.508;2023-04-02T00:51:56;101107.59;;;8.12;77.00
72465;BME280;60471;52.150;4.508;2023-04-02T00:54:28;101109.91;;;8.22;76.91
72465;BME280;60471;52.150;4.508;2023-04-02T00:56:59;101111.06;;;8.13;77.67
72465;BME280;60471;52.150;4.508;2023-04-02T00:59:35;101117.00;;;8.20;76.67
72465;BME280;60471;52.150;4.508;2023-04-02T01:05:19;101129.75;;;8.05;75.93
72465;BME280;60471;52.150;4.508;2023-04-02T01:08:22;101147.28;;;8.31;75.25
72465;BME280;60471;52.150;4.508;2023-04-02T01:17:19;101153.81;;;8.20;75.88
72465;BME280;60471;52.150;4.508;2023-04-02T01:20:19;101152.16;;;8.17;76.43
72465;BME280;60471;52.150;4.508;2023-04-02T01:26:35;101163.75;;;7.83;76.96
72465;BME280;60471;52.150;4.508;2023-04-02T01:31:52;101166.09;;;7.91;76.79
72465;BME280;60471;52.150;4.508;2023-04-02T01:34:24;101164.66;;;8.09;75.98
72465;BME280;60471;52.150;4.508;2023-04-02T01:37:07;101177.66;;;8.13;75.71
72465;BME280;60471;52.150;4.508;2023-04-02T01:39:45;101172.66;;;8.06;75.46
72465;BME280;60471;52.150;4.508;2023-04-02T01:42:31;101181.63;;;7.99;75.99
72465;BME280;60471;52.150;4.508;2023-04-02T01:45:10;101186.69;;;7.77;76.38
72465;BME280;60471;52.150;4.508;2023-04-02T01:47:39;101185.84;;;7.76;76.40
72465;BME280;60471;52.150;4.508;2023-04-02T01:50:34;101185.88;;;7.75;75.38
72465;BME280;60471;52.150;4.508;2023-04-02T01:53:05;101198.22;;;7.73;75.91
72465;BME280;60471;52.150;4.508;2023-04-02T01:55:51;101206.50;;;7.59;75.41
72465;BME280;60471;52.150;4.508;2023-04-02T01:58:25;101206.81;;;7.78;75.40
72465;BME280;60471;52.150;4.508;2023-04-02T02:01:13;101210.34;;;7.77;75.62
72465;BME280;60471;52.150;4.508;2023-04-02T02:03:43;101206.09;;;7.73;75.99
72465;BME280;60471;52.150;4.508;2023-04-02T02:06:12;101215.06;;;7.66;75.73
72465;BME280;60471;52.150;4.508;2023-04-02T02:09:12;101223.25;;;7.55;75.76
72465;BME280;60471;52.150;4.508;2023-04-02T02:11:40;101235.41;;;7.57;76.56
72465;BME280;60471;52.150;4.508;2023-04-02T02:14:18;101235.06;;;7.70;76.28
72465;BME280;60471;52.150;4.508;2023-04-02T02:16:47;101232.00;;;7.55;76.34
72465;BME280;60471;52.150;4.508;2023-04-02T02:19:42;101232.25;;;7.76;75.86
72465;BME280;60471;52.150;4.508;2023-04-02T02:22:35;101245.25;;;7.80;75.39
72465;BME280;60471;52.150;4.508;2023-04-02T02:25:09;101258.03;;;7.63;76.08
72465;BME280;60471;52.150;4.508;2023-04-02T02:27:46;101257.03;;;7.67;76.15
72465;BME280;60471;52.150;4.508;2023-04-02T02:30:37;101259.66;;;7.67;75.94
72465;BME280;60471;52.150;4.508;2023-04-02T02:35:54;101272.34;;;7.53;76.86
72465;BME280;60471;52.150;4.508;2023-04-02T02:38:46;101268.03;;;7.50;76.43
72465;BME280;60471;52.150;4.508;2023-04-02T02:41:40;101277.69;;;7.48;76.56
72465;BME280;60471;52.150;4.508;2023-04-02T02:46:50;101293.69;;;7.41;76.11
72465;BME280;60471;52.150;4.508;2023-04-02T02:49:32;101283.09;;;7.11;76.90
72465;BME280;60471;52.150;4.508;2023-04-02T02:54:29;101290.06;;;7.12;76.40
72465;BME280;60471;52.150;4.508;2023-04-02T02:57:02;101297.66;;;7.23;76.60
72465;BME280;60471;52.150;4.508;2023-04-02T02:59:32;101306.56;;;7.17;76.49
72465;BME280;60471;52.150;4.508;2023-04-02T03:02:00;101312.13;;;7.38;75.85
72465;BME280;60471;52.150;4.508;2023-04-02T03:04:27;101306.59;;;7.16;76.07
72465;BME280;60471;52.150;4.508;2023-04-02T03:07:01;101316.25;;;7.14;76.59
72465;BME280;60471;52.150;4.508;2023-04-02T03:09:48;101323.00;;;7.24;76.51
72465;BME280;60471;52.150;4.508;2023-04-02T03:17:57;101345.31;;;7.40;76.04
72465;BME280;60471;52.150;4.508;2023-04-02T03:20:46;101347.63;;;7.20;75.89
72465;BME280;60471;52.150;4.508;2023-04-02T03:23:40;101361.97;;;7.05;75.67
72465;BME280;60471;52.150;4.508;2023-04-02T03:26:13;101366.94;;;7.16;75.91
72465;BME280;60471;52.150;4.508;2023-04-02T03:28:50;101367.06;;;7.11;76.45
72465;BME280;60471;52.150;4.508;2023-04-02T03:31:30;101373.94;;;7.17;75.68
72465;BME280;60471;52.150;4.508;2023-04-02T03:34:09;101370.47;;;7.15;75.80
72465;BME280;60471;52.150;4.508;2023-04-02T03:36:53;101375.97;;;7.06;75.70
72465;BME280;60471;52.150;4.508;2023-04-02T03:39:35;101381.97;;;7.11;76.00
72465;BME280;60471;52.150;4.508;2023-04-02T03:42:15;101389.56;;;6.86;76.36
72465;BME280;60471;52.150;4.508;2023-04-02T03:44:52;101399.84;;;6.95;75.84
72465;BME280;60471;52.150;4.508;2023-04-02T03:47:36;101407.81;;;6.90;75.95
72465;BME280;60471;52.150;4.508;2023-04-02T03:50:19;101414.47;;;7.04;75.58
72465;BME280;60471;52.150;4.508;2023-04-02T03:52:52;101427.59;;;7.04;75.60
72465;BME280;60471;52.150;4.508;2023-04-02T03:55:26;101429.44;;;7.00;76.21
72465;BME280;60471;52.150;4.508;2023-04-02T03:58:06;101432.97;;;6.99;75.88
72465;BME280;60471;52.150;4.508;2023-04-02T04:00:48;101440.94;;;6.94;76.22
72465;BME280;60471;52.150;4.508;2023-04-02T04:03:26;101450.19;;;7.11;75.48
72465;BME280;60471;52.150;4.508;2023-04-02T04:08:35;101458.13;;;7.08;76.07
72465;BME280;60471;52.150;4.508;2023-04-02T04:11:16;101468.06;;;6.95;75.81
72465;BME280;60471;52.150;4.508;2023-04-02T04:13:58;101467.72;;;6.70;76.53
72465;BME280;60471;52.150;4.508;2023-04-02T04:16:31;101468.72;;;6.64;76.47
72465;BME280;60471;52.150;4.508;2023-04-02T04:19:32;101481.03;;;6.61;76.47
72465;BME280;60471;52.150;4.508;2023-04-02T04:22:13;101480.47;;;6.47;77.07
72465;BME280;60471;52.150;4.508;2023-04-02T04:24:45;101482.69;;;6.65;76.00
72465;BME280;60471;52.150;4.508;2023-04-02T04:27:20;101498.25;;;6.73;75.83
72465;BME280;60471;52.150;4.508;2023-04-02T04:30:21;101508.66;;;6.35;77.17
72465;BME280;60471;52.150;4.508;2023-04-02T04:32:55;101515.38;;;6.49;76.09
72465;BME280;60471;52.150;4.508;2023-04-02T04:35:32;101514.47;;;6.51;76.22
72465;BME280;60471;52.150;4.508;2023-04-02T04:38:15;101519.66;;;6.53;75.50
72465;BME280;60471;52.150;4.508;2023-04-02T04:40:55;101521.13;;;6.66;75.44
72465;BME280;60471;52.150;4.508;2023-04-02T04:46:05;101525.81;;;6.50;75.53
72465;BME280;60471;52.150;4.508;2023-04-02T04:51:59;101527.44;;;6.57;75.64
72465;BME280;60471;52.150;4.508;2023-04-02T04:54:37;101538.84;;;6.55;75.66
72465;BME280;60471;52.150;4.508;2023-04-02T04:57:05;101542.41;;;6.51;76.12
72465;BME280;60471;52.150;4.508;2023-04-02T04:59:57;101548.97;;;6.28;76.17
72465;BME280;60471;52.150;4.508;2023-04-02T05:03:05;101550.56;;;6.37;75.78
72465;BME280;60471;52.150;4.508;2023-04-02T05:05:43;101549.38;;;6.53;75.37
72465;BME280;60471;52.150;4.508;2023-04-02T05:08:18;101555.66;;;6.45;75.21
72465;BME280;60471;52.150;4.508;2023-04-02T05:10:50;101564.56;;;6.36;75.68
72465;BME280;60471;52.150;4.508;2023-04-02T05:13:30;101573.34;;;6.33;75.93
72465;BME280;60471;52.150;4.508;2023-04-02T05:16:25;101575.09;;;6.33;75.88
72465;BME280;60471;52.150;4.508;2023-04-02T05:19:07;101585.19;;;6.05;76.33
72465;BME280;60471;52.150;4.508;2023-04-02T05:21:50;101592.78;;;6.22;76.21
72465;BME280;60471;52.150;4.508;2023-04-02T05:27:49;101621.44;;;6.31;75.85
72465;BME280;60471;52.150;4.508;2023-04-02T05:30:44;101620.09;;;6.07;76.39
72465;BME280;60471;52.150;4.508;2023-04-02T05:33:29;101627.69;;;6.24;75.39
72465;BME280;60471;52.150;4.508;2023-04-02T05:36:08;101630.91;;;6.38;74.41
72465;BME280;60471;52.150;4.508;2023-04-02T05:38:42;101643.22;;;6.34;73.92
72465;BME280;60471;52.150;4.508;2023-04-02T05:41:17;101643.09;;;5.85;74.79
72465;BME280;60471;52.150;4.508;2023-04-02T05:43:47;101648.50;;;5.77;74.63
72465;BME280;60471;52.150;4.508;2023-04-02T05:46:25;101655.22;;;5.95;74.03
72465;BME280;60471;52.150;4.508;2023-04-02T05:48:57;101667.63;;;5.81;74.25
72465;BME280;60471;52.150;4.508;2023-04-02T05:51:29;101664.78;;;5.98;73.19
72465;BME280;60471;52.150;4.508;2023-04-02T05:54:05;101664.00;;;5.93;72.67
72465;BME280;60471;52.150;4.508;2023-04-02T05:56:48;101677.97;;;5.92;72.36
72465;BME280;60471;52.150;4.508;2023-04-02T05:59:25;101665.94;;;5.78;72.67
72465;BME280;60471;52.150;4.508;2023-04-02T06:05:10;101690.41;;;5.74;73.43
72465;BME280;60471;52.150;4.508;2023-04-02T06:08:19;101694.59;;;5.91;73.00
72465;BME280;60471;52.150;4.508;2023-04-02T06:10:55;101706.06;;;5.79;72.36
72465;BME280;60471;52.150;4.508;2023-04-02T06:13:27;101712.44;;;5.60;72.18
72465;BME280;60471;52.150;4.508;2023-04-02T06:15:53;101728.13;;;5.61;71.99
72465;BME280;60471;52.150;4.508;2023-04-02T06:18:24;101728.91;;;5.68;71.95
72465;BME280;60471;52.150;4.508;2023-04-02T06:20:54;101735.94;;;5.63;71.76
72465;BME280;60471;52.150;4.508;2023-04-02T06:23:25;101749.59;;;5.88;71.17
72465;BME280;60471;52.150;4.508;2023-04-02T06:26:11;101751.63;;;5.67;71.54
72465;BME280;60471;52.150;4.508;2023-04-02T06:28:49;101753.94;;;5.89;70.83
72465;BME280;60471;52.150;4.508;2023-04-02T06:31:27;101759.50;;;5.66;70.53
72465;BME280;60471;52.150;4.508;2023-04-02T06:34:03;101765.09;;;5.37;71.56
72465;BME280;60471;52.150;4.508;2023-04-02T06:36:32;101764.75;;;5.66;71.11
72465;BME280;60471;52.150;4.508;2023-04-02T06:39:04;101762.00;;;5.73;70.33
72465;BME280;60471;52.150;4.508;2023-04-02T06:41:34;101781.31;;;5.63;70.37
72465;BME280;60471;52.150;4.508;2023-04-02T06:44:05;101779.56;;;5.67;71.35
72465;BME280;60471;52.150;4.508;2023-04-02T06:46:49;101780.72;;;5.41;71.41
72465;BME280;60471;52.150;4.508;2023-04-02T06:49:43;101797.41;;;5.31;71.40
72465;BME280;60471;52.150;4.508;2023-04-02T06:52:22;101801.41;;;5.66;70.36
72465;BME280;60471;52.150;4.508;2023-04-02T06:57:46;101811.56;;;5.13;71.60
72465;BME280;60471;52.150;4.508;2023-04-02T07:00:39;101814.00;;;5.30;70.74
72465;BME280;60471;52.150;4.508;2023-04-02T07:03:28;101821.84;;;5.33;70.97
72465;BME280;60471;52.150;4.508;2023-04-02T07:05:59;101823.50;;;5.39;70.86
72465;BME280;60471;52.150;4.508;2023-04-02T07:08:27;101835.56;;;5.55;70.36
72465;BME280;60471;52.150;4.508;2023-04-02T07:10:53;101840.78;;;5.55;70.01
72465;BME280;60471;52.150;4.508;2023-04-02T07:13:22;101839.06;;;5.51;70.43
72465;BME280;60471;52.150;4.508;2023-04-02T07:15:51;101847.13;;;5.34;70.12
72465;BME280;60471;52.150;4.508;2023-04-02T07:18:28;101855.88;;;5.29;70.39
72465;BME280;60471;52.150;4.508;2023-04-02T07:20:57;101865.34;;;5.43;69.46
72465;BME280;60471;52.150;4.508;2023-04-02T07:23:24;101860.13;;;5.39;69.74
72465;BME280;60471;52.150;4.508;2023-04-02T07:25:55;101869.16;;;5.07;69.37
72465;BME280;60471;52.150;4.508;2023-04-02T07:28:22;101865.53;;;5.20;69.51
72465;BME280;60471;52.150;4.508;2023-04-02T07:30:49;101883.66;;;5.43;68.52
72465;BME280;60471;52.150;4.508;2023-04-02T07:33:19;101879.59;;;5.99;67.47
72465;BME280;60471;52.150;4.508;2023-04-02T07:35:47;101889.66;;;6.31;65.58
72465;BME280;60471;52.150;4.508;2023-04-02T07:38:15;101883.16;;;6.57;65.68
72465;BME280;60471;52.150;4.508;2023-04-02T07:40:41;101890.72;;;6.78;64.14
72465;BME280;60471;52.150;4.508;2023-04-02T07:43:08;101891.84;;;6.60;63.19
72465;BME280;60471;52.150;4.508;2023-04-02T07:45:35;101904.91;;;6.65;62.88
72465;BME280;60471;52.150;4.508;2023-04-02T07:48:05;101905.81;;;6.64;62.99
72465;BME280;60471;52.150;4.508;2023-04-02T07:50:38;101920.06;;;5.68;65.73
72465;BME280;60471;52.150;4.508;2023-04-02T07:53:04;101922.66;;;5.69;65.56
72465;BME280;60471;52.150;4.508;2023-04-02T07:55:31;101920.31;;;5.43;66.28
72465;BME280;60471;52.150;4.508;2023-04-02T07:57:58;101927.34;;;5.35;66.69
72465;BME280;60471;52.150;4.508;2023-04-02T08:00:26;101922.53;;;5.81;65.51
72465;BME280;60471;52.150;4.508;2023-04-02T08:02:53;101928.72;;;5.76;64.93
72465;BME280;60471;52.150;4.508;2023-04-02T08:05:19;101935.56;;;5.89;65.79
72465;BME280;60471;52.150;4.508;2023-04-02T08:07:54;101930.41;;;6.55;63.60
72465;BME280;60471;52.150;4.508;2023-04-02T08:10:22;101927.47;;;6.77;62.87
72465;BME280;60471;52.150;4.508;2023-04-02T08:12:49;101941.41;;;6.80;62.08
72465;BME280;60471;52.150;4.508;2023-04-02T08:15:16;101937.44;;;6.50;62.15
72465;BME280;60471;52.150;4.508;2023-04-02T08:17:44;101948.03;;;7.04;61.41
72465;BME280;60471;52.150;4.508;2023-04-02T08:20:18;101952.69;;;7.41;60.04
72465;BME280;60471;52.150;4.508;2023-04-02T08:22:47;101965.25;;;6.63;61.74
72465;BME280;60471;52.150;4.508;2023-04-02T08:25:15;101965.41;;;6.53;62.13
72465;BME280;60471;52.150;4.508;2023-04-02T08:27:41;101964.41;;;6.60;62.52
72465;BME280;60471;52.150;4.508;2023-04-02T08:30:09;101974.41;;;6.30;63.58
72465;BME280;60471;52.150;4.508;2023-04-02T08:32:37;101989.78;;;6.58;62.63
72465;BME280;60471;52.150;4.508;2023-04-02T08:35:07;101992.09;;;6.81;62.30
72465;BME280;60471;52.150;4.508;2023-04-02T08:37:34;102006.91;;;7.43;59.92
72465;BME280;60471;52.150;4.508;2023-04-02T08:40:01;101998.38;;;8.29;59.48
72465;BME280;60471;52.150;4.508;2023-04-02T08:42:35;102002.47;;;8.44;56.97
72465;BME280;60471;52.150;4.508;2023-04-02T08:45:18;102000.41;;;8.98;54.93
72465;BME280;60471;52.150;4.508;2023-04-02T08:48:10;102007.41;;;9.01;55.61
72465;BME280;60471;52.150;4.508;2023-04-02T08:50:41;102017.69;;;9.10;55.09
72465;BME280;60471;52.150;4.508;2023-04-02T08:53:19;102013.97;;;8.40;56.66
72465;BME280;60471;52.150;4.508;2023-04-02T08:55:59;102015.84;;;8.75;55.75
72465;BME280;60471;52.150;4.508;2023-04-02T08:58:58;102017.78;;;8.68;55.59
72465;BME280;60471;52.150;4.508;2023-04-02T09:04:23;102026.25;;;8.81;55.30
72465;BME280;60471;52.150;4.508;2023-04-02T09:06:54;102031.13;;;8.59;56.60
72465;BME280;60471;52.150;4.508;2023-04-02T09:09:22;102031.06;;;8.61;56.63
72465;BME280;60471;52.150;4.508;2023-04-02T09:11:57;102034.88;;;8.46;55.44
72465;BME280;60471;52.150;4.508;2023-04-02T09:14:40;102050.97;;;7.78;57.26
72465;BME280;60471;52.150;4.508;2023-04-02T09:17:25;102059.16;;;7.62;57.11
72465;BME280;60471;52.150;4.508;2023-04-02T09:19:53;102052.38;;;7.99;57.10
72465;BME280;60471;52.150;4.508;2023-04-02T09:22:25;102047.09;;;6.88;58.22
72465;BME280;60471;52.150;4.508;2023-04-02T09:24:55;102072.50;;;6.86;59.03
72465;BME280;60471;52.150;4.508;2023-04-02T09:27:32;102067.94;;;7.01;58.44
72465;BME280;60471;52.150;4.508;2023-04-02T09:30:12;102081.28;;;6.81;59.21
72465;BME280;60471;52.150;4.508;2023-04-02T09:32:58;102076.97;;;6.77;59.20
72465;BME280;60471;52.150;4.508;2023-04-02T09:35:29;102077.97;;;7.33;58.18
72465;BME280;60471;52.150;4.508;2023-04-02T09:48:35;102088.78;;;7.71;57.82
72465;BME280;60471;52.150;4.508;2023-04-02T09:51:10;102091.59;;;7.57;58.29
72465;BME280;60471;52.150;4.508;2023-04-02T09:53:42;102096.75;;;8.18;55.52
72465;BME280;60471;52.150;4.508;2023-04-02T09:58:41;102096.75;;;8.65;54.25
72465;BME280;60471;52.150;4.508;2023-04-02T10:01:27;102096.50;;;8.31;54.89
72465;BME280;60471;52.150;4.508;2023-04-02T10:03:57;102089.38;;;7.87;54.92
72465;BME280;60471;52.150;4.508;2023-04-02T10:06:26;102103.50;;;8.79;54.41
72465;BME280;60471;52.150;4.508;2023-04-02T10:08:55;102097.09;;;11.58;48.30
72465;BME280;60471;52.150;4.508;2023-04-02T10:11:33;102108.31;;;10.80;47.78
72465;BME280;60471;52.150;4.508;2023-04-02T10:14:04;102103.81;;;11.42;45.76
72465;BME280;60471;52.150;4.508;2023-04-02T10:16:58;102114.38;;;14.29;40.50
72465;BME280;60471;52.150;4.508;2023-04-02T10:19:52;102106.84;;;15.74;37.62
72465;BME280;60471;52.150;4.508;2023-04-02T10:22:23;102123.09;;;13.00;41.89
72465;BME280;60471;52.150;4.508;2023-04-02T10:24:49;102104.44;;;15.50;38.33
72465;BME280;60471;52.150;4.508;2023-04-02T10:33:49;102127.63;;;16.88;35.12
72465;BME280;60471;52.150;4.508;2023-04-02T10:42:09;102130.03;;;16.08;35.89
72465;BME280;60471;52.150;4.508;2023-04-02T10:44:49;102149.09;;;15.25;37.79
72465;BME280;60471;52.150;4.508;2023-04-02T10:47:40;102140.19;;;17.51;34.17
72465;BME280;60471;52.150;4.508;2023-04-02T10:53:18;102156.19;;;17.51;34.09
72465;BME280;60471;52.150;4.508;2023-04-02T10:55:55;102159.56;;;15.84;36.68
72465;BME280;60471;52.150;4.508;2023-04-02T10:58:29;102159.06;;;16.47;35.80
72465;BME280;60471;52.150;4.508;2023-04-02T11:01:14;102157.22;;;18.55;32.41
72465;BME280;60471;52.150;4.508;2023-04-02T11:03:52;102150.47;;;18.64;31.62
72465;BME280;60471;52.150;4.508;2023-04-02T11:06:37;102158.69;;;18.31;31.05
72465;BME280;60471;52.150;4.508;2023-04-02T11:09:36;102172.78;;;16.57;33.75
72465;BME280;60471;52.150;4.508;2023-04-02T11:12:22;102164.97;;;17.04;32.48
72465;BME280;60471;52.150;4.508;2023-04-02T11:15:16;102171.97;;;16.73;33.07
72465;BME280;60471;52.150;4.508;2023-04-02T11:17:44;102163.84;;;16.58;33.70
72465;BME280;60471;52.150;4.508;2023-04-02T11:23:15;102169.03;;;16.09;35.87
72465;BME280;60471;52.150;4.508;2023-04-02T11:25:44;102180.25;;;17.18;34.81
72465;BME280;60471;52.150;4.508;2023-04-02T11:28:28;102175.91;;;17.95;33.38
72465;BME280;60471;52.150;4.508;2023-04-02T11:30:57;102171.88;;;17.88;33.99
72465;BME280;60471;52.150;4.508;2023-04-02T11:35:55;102173.97;;;18.43;32.04
72465;BME280;60471;52.150;4.508;2023-04-02T11:40:58;102168.75;;;19.57;30.94
72465;BME280;60471;52.150;4.508;2023-04-02T11:48:41;102183.16;;;17.93;32.97
72465;BME280;60471;52.150;4.508;2023-04-02T11:51:45;102168.88;;;19.13;31.31
72465;BME280;60471;52.150;4.508;2023-04-02T11:54:00;102180.75;;;19.50;30.25
72465;BME280;60471;52.150;4.508;2023-04-02T11:56:35;102177.25;;;19.35;30.81
72465;BME280;60471;52.150;4.508;2023-04-02T12:05:41;102197.13;;;21.31;27.52
72465;BME280;60471;52.150;4.508;2023-04-02T12:11:05;102203.44;;;20.54;28.02
72465;BME280;60471;52.150;4.508;2023-04-02T12:13:52;102213.28;;;19.16;30.37
72465;BME280;60471;52.150;4.508;2023-04-02T12:16:20;102211.06;;;19.79;29.06
72465;BME280;60471;52.150;4.508;2023-04-02T12:18:50;102215.97;;;19.01;29.24
72465;BME280;60471;52.150;4.508;2023-04-02T12:21:24;102229.00;;;17.86;31.36
72465;BME280;60471;52.150;4.508;2023-04-02T12:23:54;102226.84;;;20.90;28.42
72465;BME280;60471;52.150;4.508;2023-04-02T12:26:35;102215.47;;;23.38;24.58
72465;BME280;60471;52.150;4.508;2023-04-02T12:29:21;102214.66;;;22.80;24.63
72465;BME280;60471;52.150;4.508;2023-04-02T12:31:56;102215.88;;;24.11;23.30
72465;BME280;60471;52.150;4.508;2023-04-02T12:34:26;102219.91;;;22.12;26.35
72465;BME280;60471;52.150;4.508;2023-04-02T12:36:59;102224.38;;;22.94;24.79
72465;BME280;60471;52.150;4.508;2023-04-02T12:39:31;102213.72;;;24.37;22.92
72465;BME280;60471;52.150;4.508;2023-04-02T12:41:58;102216.56;;;26.57;20.36
72465;BME280;60471;52.150;4.508;2023-04-02T12:44:27;102210.41;;;24.33;22.48
72465;BME280;60471;52.150;4.508;2023-04-02T12:46:54;102216.78;;;23.55;23.81
72465;BME280;60471;52.150;4.508;2023-04-02T12:49:38;102220.00;;;23.04;24.29
72465;BME280;60471;52.150;4.508;2023-04-02T12:52:10;102212.84;;;22.46;24.86
72465;BME280;60471;52.150;4.508;2023-04-02T12:54:49;102216.25;;;22.37;25.45
72465;BME280;60471;52.150;4.508;2023-04-02T12:59:58;102227.41;;;24.02;24.05
72465;BME280;60471;52.150;4.508;2023-04-02T13:02:28;102233.47;;;22.34;26.05
72465;BME280;60471;52.150;4.508;2023-04-02T13:04:58;102234.31;;;22.59;24.77
72465;BME280;60471;52.150;4.508;2023-04-02T13:07:29;102242.72;;;23.00;24.59
72465;BME280;60471;52.150;4.508;2023-04-02T13:10:01;102250.13;;;24.42;22.77
72465;BME280;60471;52.150;4.508;2023-04-02T13:12:33;102242.72;;;24.76;22.40
72465;BME280;60471;52.150;4.508;2023-04-02T13:15:05;102246.41;;;24.11;23.71
72465;BME280;60471;52.150;4.508;2023-04-02T13:17:46;102254.78;;;23.75;23.38
72465;BME280;60471;52.150;4.508;2023-04-02T13:20:33;102261.88;;;24.30;23.01
72465;BME280;60471;52.150;4.508;2023-04-02T13:25:59;102258.25;;;26.25;20.50
72465;BME280;60471;52.150;4.508;2023-04-02T13:28:28;102244.63;;;26.46;20.40
72465;BME280;60471;52.150;4.508;2023-04-02T13:30:54;102247.38;;;27.59;18.77
72465;BME280;60471;52.150;4.508;2023-04-02T13:33:20;102261.25;;;23.16;23.58
72465;BME280;60471;52.150;4.508;2023-04-02T13:35:46;102247.97;;;23.59;23.55
72465;BME280;60471;52.150;4.508;2023-04-02T13:38:13;102250.00;;;25.67;21.61
72465;BME280;60471;52.150;4.508;2023-04-02T13:40:39;102239.88;;;27.43;19.73
72465;BME280;60471;52.150;4.508;2023-04-02T13:43:06;102248.34;;;27.31;19.47
72465;BME280;60471;52.150;4.508;2023-04-02T13:45:40;102241.16;;;27.49;19.47
72465;BME280;60471;52.150;4.508;2023-04-02T13:48:12;102252.59;;;26.57;19.83
72465;BME280;60471;52.150;4.508;2023-04-02T13:50:40;102249.03;;;26.57;19.51
72465;BME280;60471;52.150;4.508;2023-04-02T13:53:14;102248.88;;;26.29;19.92
72465;BME280;60471;52.150;4.508;2023-04-02T13:55:48;102245.84;;;23.52;23.39
72465;BME280;60471;52.150;4.508;2023-04-02T13:58:15;102269.84;;;21.90;25.37
72465;BME280;60471;52.150;4.508;2023-04-02T14:00:41;102267.78;;;23.81;23.37
72465;BME280;60471;52.150;4.508;2023-04-02T14:03:15;102268.84;;;24.97;21.97
72465;BME280;60471;52.150;4.508;2023-04-02T14:08:57;102268.06;;;27.70;18.55
72465;BME280;60471;52.150;4.508;2023-04-02T14:14:21;102271.41;;;27.82;18.14
72465;BME280;60471;52.150;4.508;2023-04-02T14:26:00;102280.00;;;24.50;22.64
72465;BME280;60471;52.150;4.508;2023-04-02T14:37:14;102307.69;;;23.42;22.44
72465;BME280;60471;52.150;4.508;2023-04-02T14:39:49;102305.22;;;23.39;22.80
72465;BME280;60471;52.150;4.508;2023-04-02T14:51:37;102308.28;;;25.81;19.98
72465;BME280;60471;52.150;4.508;2023-04-02T15:05:47;102311.22;;;23.54;23.75
72465;BME280;60471;52.150;4.508;2023-04-02T15:08:29;102320.19;;;24.10;22.80
72465;BME280;60471;52.150;4.508;2023-04-02T15:11:24;102324.94;;;22.58;24.62
72465;BME280;60471;52.150;4.508;2023-04-02T15:16:48;102313.22;;;20.43;27.31
72465;BME280;60471;52.150;4.508;2023-04-02T15:19:16;102331.69;;;20.47;27.30
72465;BME280;60471;52.150;4.508;2023-04-02T15:24:58;102314.19;;;20.27;28.02
72465;BME280;60471;52.150;4.508;2023-04-02T15:27:54;102335.13;;;18.61;30.18
72465;BME280;60471;52.150;4.508;2023-04-02T15:30:31;102321.75;;;19.07;29.66
72465;BME280;60471;52.150;4.508;2023-04-02T15:36:20;102312.25;;;20.71;27.02
72465;BME280;60471;52.150;4.508;2023-04-02T15:39:06;102337.31;;;20.02;27.91
72465;BME280;60471;52.150;4.508;2023-04-02T15:42:12;102323.66;;;19.78;28.51
72465;BME280;60471;52.150;4.508;2023-04-02T15:50:37;102331.22;;;20.26;27.88
72465;BME280;60471;52.150;4.508;2023-04-02T15:56:52;102336.75;;;22.79;24.28
72465;BME280;60471;52.150;4.508;2023-04-02T16:08:56;102346.03;;;19.18;29.46
72465;BME280;60471;52.150;4.508;2023-04-02T16:11:27;102357.19;;;18.33;31.14
72465;BME280;60471;52.150;4.508;2023-04-02T16:14:09;102354.34;;;20.15;29.04
72465;BME280;60471;52.150;4.508;2023-04-02T16:16:38;102373.53;;;19.06;30.51
72465;BME280;60471;52.150;4.508;2023-04-02T16:19:31;102370.66;;;19.09;30.28
72465;BME280;60471;52.150;4.508;2023-04-02T16:24:42;102379.53;;;19.25;28.88
72465;BME280;60471;52.150;4.508;2023-04-02T16:33:35;102380.75;;;17.78;32.41
72465;BME280;60471;52.150;4.508;2023-04-02T16:36:12;102382.28;;;17.49;33.45
72465;BME280;60471;52.150;4.508;2023-04-02T16:38:58;102394.84;;;17.29;33.71
72465;BME280;60471;52.150;4.508;2023-04-02T16:44:50;102407.66;;;16.49;34.61
72465;BME280;60471;52.150;4.508;2023-04-02T16:55:37;102409.75;;;16.23;34.92
72465;BME280;60471;52.150;4.508;2023-04-02T17:00:55;102421.34;;;16.22;35.53
72465;BME280;60471;52.150;4.508;2023-04-02T17:06:40;102432.22;;;15.79;35.63
72465;BME280;60471;52.150;4.508;2023-04-02T17:09:22;102438.50;;;15.56;36.35